Terminal Aerodrome Forecast
Issued by NWS Twin Cities, MN

Home | Current Version | Previous Version | Text Only | Print | Product List | Glossary Off
Versions: 1 2 3 4 5 6 7 8 9 10 11 12 13 14 15 16 17 18 19 20 21 22 23 24 25 26 27 28 29 30 31

000
FTUS43 KMPX 160800 AAA
TAFMSP
TAF AMD
KMSP 160855Z 1609/1712 33019G25KT 1 1/2SM -SN SCT014 OVC020
     FM161000 33018G25KT 4SM -SN BKN020 OVC050
     FM161200 33017G24KT P6SM OVC016
     FM162100 32015G21KT P6SM BKN022
     FM170100 31012KT P6SM SCT025=

USA.gov is the U.S. government's official web portal to all federal, state and local government web resources and services.